createdAt,value
2022-09-28T00:03:39.060Z,1.92
2022-09-28T00:06:08.362Z,2.30
2022-09-28T00:08:36.231Z,2.28
2022-09-28T00:11:04.383Z,1.98
2022-09-28T00:13:33.071Z,2.13
2022-09-28T00:16:14.249Z,2.50
2022-09-28T00:18:42.047Z,2.55
2022-09-28T00:21:18.483Z,2.70
2022-09-28T00:24:04.626Z,2.20
2022-09-28T00:26:33.164Z,2.60
2022-09-28T00:29:02.204Z,2.40
2022-09-28T00:31:32.929Z,2.70
2022-09-28T00:34:02.982Z,2.10
2022-09-28T00:36:31.461Z,1.77
2022-09-28T00:38:59.422Z,1.70
2022-09-28T00:41:28.192Z,1.80
2022-09-28T00:44:27.250Z,1.98
2022-09-28T00:46:57.416Z,1.50
2022-09-28T00:49:52.794Z,1.80
2022-09-28T00:52:31.425Z,1.80
2022-09-28T00:55:01.409Z,1.77
2022-09-28T00:57:29.331Z,1.67
2022-09-28T00:59:57.214Z,1.95
2022-09-28T01:02:24.424Z,1.92
2022-09-28T01:04:52.450Z,1.60
2022-09-28T01:07:20.017Z,2.20
2022-09-28T01:09:47.556Z,1.85
2022-09-28T01:12:14.664Z,1.85
2022-09-28T01:14:41.902Z,2.00
2022-09-28T01:17:34.591Z,2.30
2022-09-28T01:20:28.441Z,2.25
2022-09-28T01:23:28.253Z,2.10
2022-09-28T01:26:32.901Z,2.30
2022-09-28T01:29:26.271Z,2.28
2022-09-28T01:32:11.767Z,2.50
2022-09-28T01:34:44.276Z,2.15
2022-09-28T01:37:15.061Z,2.58
2022-09-28T01:39:46.099Z,2.53
2022-09-28T01:42:21.658Z,2.70
2022-09-28T01:44:51.102Z,2.85
2022-09-28T01:47:21.091Z,2.67
2022-09-28T01:49:53.169Z,2.75
2022-09-28T01:52:34.175Z,3.22
2022-09-28T01:55:35.804Z,4.00
2022-09-28T01:58:19.288Z,3.40
2022-09-28T02:00:50.545Z,3.88
2022-09-28T02:05:59.809Z,3.45
2022-09-28T02:08:35.684Z,3.63
2022-09-28T02:11:21.511Z,3.72
2022-09-28T02:14:03.436Z,4.13
2022-09-28T02:16:43.302Z,4.00
2022-09-28T02:19:19.048Z,4.20
2022-09-28T02:22:14.234Z,4.80
2022-09-28T02:24:56.824Z,4.80
2022-09-28T02:27:29.784Z,5.00
2022-09-28T02:29:57.095Z,4.53
2022-09-28T02:32:24.681Z,4.45
2022-09-28T02:34:52.139Z,4.53
2022-09-28T02:37:19.067Z,4.03
2022-09-28T02:39:46.322Z,4.38
2022-09-28T02:42:25.800Z,4.15
2022-09-28T02:45:14.313Z,4.38
2022-09-28T02:50:44.435Z,4.20
2022-09-28T02:53:14.459Z,4.75
2022-09-28T02:56:07.441Z,4.75
2022-09-28T02:58:50.899Z,4.80
2022-09-28T03:01:36.040Z,5.10
2022-09-28T03:04:06.231Z,5.07
2022-09-28T03:06:55.028Z,5.25
2022-09-28T03:09:43.261Z,5.20
2022-09-28T03:12:12.864Z,5.85
2022-09-28T03:14:40.395Z,5.97
2022-09-28T03:17:08.663Z,5.60
2022-09-28T03:19:36.873Z,5.35
2022-09-28T03:22:05.664Z,4.80
2022-09-28T03:24:32.715Z,5.00
2022-09-28T03:26:59.646Z,5.20
2022-09-28T03:29:26.804Z,4.97
2022-09-28T03:31:59.904Z,5.03
2022-09-28T03:34:27.132Z,4.45
2022-09-28T03:36:54.484Z,4.93
2022-09-28T03:39:21.513Z,4.75
2022-09-28T03:41:48.444Z,5.40
2022-09-28T03:44:17.184Z,5.57
2022-09-28T03:46:46.754Z,6.18
2022-09-28T03:49:13.876Z,6.43
2022-09-28T03:51:40.991Z,7.40
2022-09-28T03:54:08.883Z,6.75
2022-09-28T03:56:36.605Z,6.95
2022-09-28T03:59:04.685Z,7.35
2022-09-28T04:01:31.990Z,7.40
2022-09-28T04:03:59.281Z,7.95
2022-09-28T04:06:27.263Z,7.60
2022-09-28T04:08:54.301Z,7.30
2022-09-28T04:11:21.421Z,8.95
2022-09-28T04:13:52.462Z,8.05
2022-09-28T04:16:20.053Z,8.70
2022-09-28T04:18:57.813Z,8.57
2022-09-28T04:21:48.322Z,8.60
2022-09-28T04:24:15.600Z,8.50
2022-09-28T04:26:42.556Z,8.50
2022-09-28T04:29:17.946Z,8.00
2022-09-28T04:31:55.574Z,8.20
2022-09-28T04:34:34.523Z,7.82
2022-09-28T04:37:02.874Z,8.30
2022-09-28T04:39:30.121Z,7.05
2022-09-28T04:41:57.463Z,7.28
2022-09-28T04:44:24.458Z,7.80
2022-09-28T04:46:59.734Z,7.97
2022-09-28T04:49:30.023Z,8.00
2022-09-28T04:52:18.804Z,8.48
2022-09-28T04:54:48.906Z,8.55
2022-09-28T04:57:16.656Z,8.90
2022-09-28T04:59:43.637Z,10.93
2022-09-28T05:02:12.073Z,10.45
2022-09-28T05:05:02.029Z,11.30
2022-09-28T05:07:38.045Z,10.68
2022-09-28T05:10:07.194Z,10.57
2022-09-28T05:12:34.782Z,11.35
2022-09-28T05:15:01.748Z,11.82
2022-09-28T05:17:28.943Z,11.48
2022-09-28T05:20:19.058Z,12.60
2022-09-28T05:22:46.298Z,13.73
2022-09-28T05:25:15.354Z,13.20
2022-09-28T05:28:03.395Z,13.23
2022-09-28T05:30:48.941Z,11.20
2022-09-28T05:33:51.313Z,12.63
2022-09-28T05:36:18.411Z,13.50
2022-09-28T05:38:45.977Z,13.20
2022-09-28T05:41:13.945Z,14.02
2022-09-28T05:43:41.024Z,13.57
2022-09-28T05:46:08.403Z,12.88
2022-09-28T05:48:38.490Z,10.80
2022-09-28T05:51:05.593Z,11.98
2022-09-28T05:53:32.572Z,11.57
2022-09-28T05:56:00.031Z,10.40
2022-09-28T05:58:28.349Z,9.98
2022-09-28T06:00:58.316Z,10.57
2022-09-28T06:03:25.696Z,9.75
2022-09-28T06:05:54.487Z,9.77
2022-09-28T06:08:21.644Z,9.77
2022-09-28T06:11:01.086Z,9.27
2022-09-28T06:13:29.183Z,9.40
2022-09-28T06:15:56.348Z,10.10
2022-09-28T06:18:23.750Z,13.27
2022-09-28T06:21:10.981Z,13.88
2022-09-28T06:23:48.220Z,14.20
2022-09-28T06:26:17.222Z,13.85
2022-09-28T06:28:45.159Z,13.80
2022-09-28T06:31:12.511Z,13.02
2022-09-28T06:33:48.522Z,11.98
2022-09-28T06:36:15.902Z,11.90
2022-09-28T06:38:43.020Z,11.82
2022-09-28T06:41:11.791Z,11.77
2022-09-28T06:43:40.535Z,11.40
2022-09-28T06:46:14.370Z,10.73
2022-09-28T06:48:59.661Z,10.75
2022-09-28T06:51:46.852Z,12.40
2022-09-28T06:54:32.777Z,11.88
2022-09-28T06:57:02.703Z,11.45
2022-09-28T06:59:30.272Z,10.90
2022-09-28T07:01:59.904Z,10.90
2022-09-28T07:04:59.184Z,10.85
2022-09-28T07:07:44.891Z,8.90
2022-09-28T07:10:28.703Z,9.52
2022-09-28T07:13:22.103Z,8.90
2022-09-28T07:16:05.253Z,8.75
2022-09-28T07:18:32.283Z,9.48
2022-09-28T07:20:59.805Z,9.00
2022-09-28T07:23:29.678Z,9.23
2022-09-28T07:26:19.206Z,9.07
2022-09-28T07:29:13.227Z,9.90
2022-09-28T07:31:58.692Z,9.48
2022-09-28T07:34:58.753Z,8.85
2022-09-28T07:37:46.619Z,8.23
2022-09-28T07:40:32.191Z,8.27
2022-09-28T07:43:06.363Z,7.63
2022-09-28T07:45:36.845Z,7.57
2022-09-28T07:48:04.168Z,8.32
2022-09-28T07:50:56.767Z,8.43
2022-09-28T07:53:45.932Z,7.30
2022-09-28T07:56:31.132Z,7.68
2022-09-28T07:59:18.886Z,7.63
2022-09-28T08:02:04.381Z,7.60
2022-09-28T08:04:31.729Z,8.35
2022-09-28T08:06:59.812Z,8.07
2022-09-28T08:09:26.981Z,8.93
2022-09-28T08:12:19.787Z,8.88
2022-09-28T08:15:10.461Z,8.70
2022-09-28T08:17:51.743Z,9.63
2022-09-28T08:20:39.421Z,9.77
2022-09-28T08:23:11.707Z,8.93
2022-09-28T08:25:40.561Z,9.00
2022-09-28T08:28:07.609Z,9.70
2022-09-28T08:30:41.512Z,9.50
2022-09-28T08:33:27.902Z,9.05
2022-09-28T08:36:13.811Z,9.57
2022-09-28T08:38:59.021Z,8.70
2022-09-28T08:41:43.331Z,9.75
2022-09-28T08:44:24.571Z,10.48
2022-09-28T08:47:43.711Z,9.93
2022-09-28T08:50:32.553Z,14.25
2022-09-28T08:53:36.280Z,11.50
2022-09-28T08:56:17.372Z,10.68
2022-09-28T09:01:16.675Z,10.10
2022-09-28T09:03:45.911Z,10.93
2022-09-28T09:06:36.571Z,11.27
2022-09-28T09:09:51.226Z,9.98
2022-09-28T09:12:41.179Z,9.63
2022-09-28T09:15:47.788Z,9.32
2022-09-28T09:18:37.304Z,9.88
2022-09-28T09:21:44.566Z,9.68
2022-09-28T09:24:48.967Z,10.13
2022-09-28T09:28:07.988Z,9.50
2022-09-28T09:31:09.332Z,8.57
2022-09-28T09:34:01.211Z,9.77
2022-09-28T09:37:17.222Z,8.90
2022-09-28T09:40:11.210Z,9.23
2022-09-28T09:43:27.934Z,8.60
2022-09-28T09:46:38.132Z,8.77
2022-09-28T09:49:24.995Z,9.05
2022-09-28T09:52:15.404Z,10.13
2022-09-28T09:54:57.804Z,8.18
2022-09-28T09:57:53.410Z,7.60
2022-09-28T10:00:46.070Z,6.95
2022-09-28T10:03:26.437Z,6.45
2022-09-28T10:06:07.267Z,5.43
2022-09-28T10:08:38.017Z,6.10
2022-09-28T10:11:38.759Z,5.88
2022-09-28T10:14:21.582Z,6.03
2022-09-28T10:16:57.357Z,6.38
2022-09-28T10:19:44.881Z,6.25
2022-09-28T10:22:31.712Z,5.80
2022-09-28T10:25:01.424Z,6.55
2022-09-28T10:27:32.063Z,6.80
2022-09-28T10:30:11.802Z,6.63
2022-09-28T10:32:41.795Z,7.50
2022-09-28T10:35:18.755Z,7.40
2022-09-28T10:38:00.251Z,7.43
2022-09-28T10:40:56.404Z,7.00
2022-09-28T10:44:08.819Z,7.03
2022-09-28T10:46:56.629Z,6.68
2022-09-28T10:49:24.491Z,6.63
2022-09-28T10:51:56.691Z,6.28
2022-09-28T10:54:29.665Z,7.03
2022-09-28T10:56:59.667Z,8.00
2022-09-28T10:59:41.136Z,7.95
2022-09-28T11:02:24.481Z,6.88
2022-09-28T11:05:00.341Z,8.55
2022-09-28T11:07:33.772Z,8.82
2022-09-28T11:10:01.786Z,10.50
2022-09-28T11:12:39.721Z,7.43
2022-09-28T11:15:08.019Z,11.02
2022-09-28T11:17:41.655Z,10.48
2022-09-28T11:20:33.111Z,7.43
2022-09-28T11:23:08.322Z,6.22
2022-09-28T11:25:39.701Z,4.82
2022-09-28T11:28:06.943Z,4.85
2022-09-28T11:30:40.725Z,4.95
2022-09-28T11:33:33.601Z,5.45
2022-09-28T11:36:47.131Z,6.00
2022-09-28T11:39:38.795Z,6.20
2022-09-28T11:42:35.054Z,4.70
2022-09-28T11:45:37.138Z,5.60
2022-09-28T11:48:07.531Z,4.18
2022-09-28T11:50:55.953Z,4.90
2022-09-28T11:53:48.934Z,3.45
2022-09-28T11:56:34.912Z,3.67
2022-09-28T11:59:14.952Z,2.70
2022-09-28T12:01:57.398Z,2.85
2022-09-28T12:04:48.972Z,2.10
2022-09-28T12:07:23.367Z,2.15
2022-09-28T12:09:55.643Z,3.20
2022-09-28T12:14:57.598Z,1.58
2022-09-28T12:17:42.866Z,1.60
2022-09-28T12:20:54.881Z,1.40
2022-09-28T12:23:31.552Z,1.40
2022-09-28T12:26:03.824Z,1.58
2022-09-28T12:28:35.423Z,1.52
2022-09-28T12:31:12.884Z,1.40
2022-09-28T12:33:42.113Z,1.40
2022-09-28T12:36:30.590Z,0.90
2022-09-28T12:39:30.702Z,1.42
2022-09-28T12:42:32.101Z,1.08
2022-09-28T12:45:02.409Z,1.10
2022-09-28T12:47:46.131Z,1.25
2022-09-28T12:50:38.145Z,0.90
2022-09-28T12:55:51.212Z,1.38
2022-09-28T12:59:00.129Z,1.50
2022-09-28T13:01:40.127Z,1.10
2022-09-28T13:04:44.780Z,1.08
2022-09-28T13:07:23.459Z,1.20
2022-09-28T13:09:55.787Z,1.20
2022-09-28T13:12:25.911Z,0.95
2022-09-28T13:14:58.632Z,1.33
2022-09-28T13:17:50.614Z,0.93
2022-09-28T13:20:35.889Z,0.95
2022-09-28T13:23:08.858Z,1.42
2022-09-28T13:25:37.435Z,1.27
2022-09-28T13:28:05.890Z,1.17
2022-09-28T13:30:35.804Z,1.58
2022-09-28T13:33:04.501Z,1.40
2022-09-28T13:35:33.425Z,1.67
2022-09-28T13:38:18.750Z,1.98
2022-09-28T13:41:09.984Z,1.50
2022-09-28T13:43:57.932Z,1.70
2022-09-28T13:46:43.371Z,2.38
2022-09-28T13:49:17.285Z,2.20
2022-09-28T13:52:02.974Z,1.70
2022-09-28T13:55:06.675Z,2.60
2022-09-28T13:57:51.559Z,2.22
2022-09-28T14:00:37.322Z,2.30
2022-09-28T14:03:19.717Z,2.00
2022-09-28T14:05:49.641Z,2.22
2022-09-28T14:08:38.508Z,2.65
2022-09-28T14:11:27.101Z,2.70
2022-09-28T14:14:16.225Z,2.90
2022-09-28T14:16:43.957Z,2.20
2022-09-28T14:19:26.706Z,2.15
2022-09-28T14:22:00.627Z,3.90
2022-09-28T14:25:05.152Z,6.50
2022-09-28T14:27:37.979Z,5.00
2022-09-28T14:30:19.692Z,3.97
2022-09-28T14:32:54.896Z,2.60
2022-09-28T14:35:40.842Z,4.28
2022-09-28T14:38:36.499Z,4.93
2022-09-28T14:41:13.785Z,3.97
2022-09-28T14:43:46.751Z,1.58
2022-09-28T14:46:26.161Z,1.50
2022-09-28T14:48:55.176Z,2.65
2022-09-28T14:51:25.574Z,3.13
2022-09-28T14:54:12.965Z,3.70
2022-09-28T14:56:47.748Z,3.92
2022-09-28T14:59:18.326Z,3.00
2022-09-28T15:02:02.693Z,3.25
2022-09-28T15:04:31.249Z,3.50
2022-09-28T15:06:58.284Z,3.63
2022-09-28T15:09:43.790Z,2.33
2022-09-28T15:12:12.261Z,1.90
2022-09-28T15:14:54.097Z,1.77
2022-09-28T15:17:27.565Z,1.90
2022-09-28T15:20:01.543Z,2.28
2022-09-28T15:22:30.483Z,2.75
2022-09-28T15:25:02.362Z,2.67
2022-09-28T15:27:37.789Z,2.55
2022-09-28T15:30:28.819Z,2.58
2022-09-28T15:33:17.200Z,3.85
2022-09-28T15:36:07.932Z,4.03
2022-09-28T15:38:35.231Z,4.25
2022-09-28T15:41:06.718Z,3.38
2022-09-28T15:43:36.851Z,3.22
2022-09-28T15:46:21.280Z,3.10
2022-09-28T15:48:56.589Z,2.63
2022-09-28T15:51:24.841Z,3.22
2022-09-28T15:53:58.250Z,2.72
2022-09-28T15:56:26.393Z,3.30
2022-09-28T15:59:15.182Z,3.33
2022-09-28T16:01:45.945Z,6.13
2022-09-28T16:04:39.561Z,6.57
2022-09-28T16:07:29.341Z,5.53
2022-09-28T16:10:02.431Z,4.90
2022-09-28T16:13:06.396Z,4.78
2022-09-28T16:15:35.555Z,6.78
2022-09-28T16:18:20.902Z,6.15
2022-09-28T16:20:56.306Z,5.47
2022-09-28T16:23:31.345Z,4.78
2022-09-28T16:26:37.526Z,7.05
2022-09-28T16:29:40.309Z,11.40
2022-09-28T16:32:26.029Z,8.73
2022-09-28T16:35:17.515Z,8.10
2022-09-28T16:37:48.782Z,7.45
2022-09-28T16:40:15.871Z,8.63
2022-09-28T16:42:48.921Z,8.63
2022-09-28T16:45:23.914Z,8.05
2022-09-28T16:47:53.145Z,6.60
2022-09-28T16:50:21.802Z,6.47
2022-09-28T16:53:31.486Z,5.30
2022-09-28T16:55:59.156Z,4.28
2022-09-28T16:58:27.451Z,4.40
2022-09-28T17:00:55.150Z,5.63
2022-09-28T17:03:23.801Z,5.38
2022-09-28T17:05:51.821Z,6.10
2022-09-28T17:08:20.514Z,5.93
2022-09-28T17:13:39.942Z,5.30
2022-09-28T17:16:11.744Z,9.60
2022-09-28T17:18:39.907Z,11.30
2022-09-28T17:21:11.848Z,12.55
2022-09-28T17:23:38.956Z,12.70
2022-09-28T17:26:06.082Z,12.43
2022-09-28T17:28:37.049Z,13.75
2022-09-28T17:31:04.956Z,14.43
2022-09-28T17:33:32.103Z,14.35
2022-09-28T17:36:04.886Z,14.15
2022-09-28T17:38:32.601Z,14.20
2022-09-28T17:40:59.734Z,15.43
2022-09-28T17:43:26.782Z,14.90
2022-09-28T17:45:53.726Z,14.38
2022-09-28T17:48:24.429Z,14.52
2022-09-28T17:50:51.591Z,14.88
2022-09-28T17:53:18.488Z,14.40
2022-09-28T17:55:45.574Z,14.38
2022-09-28T17:58:18.507Z,15.52
2022-09-28T18:00:50.745Z,15.57
2022-09-28T18:03:20.197Z,16.35
2022-09-28T18:05:49.849Z,16.42
2022-09-28T18:08:21.447Z,20.55
2022-09-28T18:10:49.972Z,20.08
2022-09-28T18:13:16.920Z,20.58
2022-09-28T18:15:43.883Z,20.90
2022-09-28T18:18:13.345Z,23.23
2022-09-28T18:20:41.671Z,24.77
2022-09-28T18:23:08.855Z,25.42
2022-09-28T18:25:44.561Z,21.55
2022-09-28T18:28:12.893Z,19.15
2022-09-28T18:30:41.779Z,20.00
2022-09-28T18:33:09.162Z,17.25
2022-09-28T18:35:36.637Z,17.38
2022-09-28T18:38:05.520Z,16.45
2022-09-28T18:40:36.023Z,15.20
2022-09-28T18:43:03.901Z,14.43
2022-09-28T18:45:31.224Z,16.35
2022-09-28T18:47:59.962Z,19.10
2022-09-28T18:50:27.032Z,23.17
2022-09-28T18:52:54.093Z,22.23
2022-09-28T18:55:21.251Z,24.27
2022-09-28T18:57:48.224Z,22.23
2022-09-28T19:00:15.487Z,22.48
2022-09-28T19:02:43.247Z,22.65
2022-09-28T19:05:10.321Z,23.42
2022-09-28T19:07:37.577Z,22.20
2022-09-28T19:10:05.231Z,20.45
2022-09-28T19:12:33.009Z,19.75
2022-09-28T19:15:00.026Z,20.50
2022-09-28T19:17:36.953Z,19.88
2022-09-28T19:20:04.666Z,20.45
2022-09-28T19:22:31.944Z,21.65
2022-09-28T19:24:59.132Z,21.80
2022-09-28T19:27:26.362Z,22.40
2022-09-28T19:29:53.761Z,24.63
2022-09-28T19:32:21.097Z,29.70
2022-09-28T19:34:48.635Z,28.02
2022-09-28T19:37:16.144Z,24.25
2022-09-28T19:39:43.511Z,23.75
2022-09-28T19:42:10.751Z,23.58
2022-09-28T19:44:39.587Z,21.13
2022-09-28T19:47:09.029Z,21.42
2022-09-28T19:49:38.762Z,23.75
2022-09-28T19:52:17.285Z,22.60
2022-09-28T19:54:57.045Z,24.52
2022-09-28T19:57:27.977Z,24.38
2022-09-28T20:00:01.669Z,27.15
2022-09-28T20:02:33.818Z,25.88
2022-09-28T20:05:01.013Z,26.85
2022-09-28T20:07:28.382Z,25.77
2022-09-28T20:09:55.385Z,28.00
2022-09-28T20:12:22.550Z,26.88
2022-09-28T20:14:49.614Z,26.90
2022-09-28T20:17:16.610Z,25.27
2022-09-28T20:19:43.745Z,23.83
2022-09-28T20:22:12.234Z,24.30
2022-09-28T20:24:39.307Z,26.40
2022-09-28T20:27:06.802Z,27.20
2022-09-28T20:29:34.796Z,28.77
2022-09-28T20:32:04.174Z,27.33
2022-09-28T20:34:31.761Z,27.40
2022-09-28T20:36:58.738Z,27.73
2022-09-28T20:39:26.151Z,31.05
2022-09-28T20:41:53.781Z,30.77
2022-09-28T20:44:21.239Z,32.72
2022-09-28T20:46:51.427Z,32.70
2022-09-28T20:49:18.603Z,36.25
2022-09-28T20:51:45.793Z,39.65
2022-09-28T20:54:12.929Z,40.97
2022-09-28T20:56:39.915Z,42.45
2022-09-28T20:59:11.902Z,38.63
2022-09-28T21:04:07.415Z,33.30
2022-09-28T21:06:39.352Z,34.00
2022-09-28T21:11:35.826Z,35.15
2022-09-28T21:14:05.261Z,35.92
2022-09-28T21:16:34.261Z,38.78
2022-09-28T21:19:01.495Z,36.70
2022-09-28T21:21:28.608Z,32.95
2022-09-28T21:23:56.813Z,27.52
2022-09-28T21:26:26.055Z,27.27
2022-09-28T21:28:58.239Z,31.95
2022-09-28T21:31:29.412Z,35.90
2022-09-28T21:33:57.816Z,39.90
2022-09-28T21:36:25.685Z,38.90
2022-09-28T21:38:54.314Z,33.30
2022-09-28T21:41:21.453Z,34.80
2022-09-28T21:43:48.365Z,34.97
2022-09-28T21:46:15.454Z,37.28
2022-09-28T21:48:42.430Z,37.80
2022-09-28T21:51:12.882Z,35.28
2022-09-28T21:53:39.857Z,32.80
2022-09-28T21:56:09.939Z,35.20
2022-09-28T21:58:37.176Z,37.28
2022-09-28T22:01:11.083Z,37.65
2022-09-28T22:03:38.184Z,36.97
2022-09-28T22:06:06.024Z,38.00
2022-09-28T22:08:34.021Z,37.65
2022-09-28T22:11:02.778Z,35.28
2022-09-28T22:13:31.381Z,36.03
2022-09-28T22:15:58.999Z,36.33
2022-09-28T22:18:27.783Z,33.05
2022-09-28T22:21:09.876Z,33.38
2022-09-28T22:26:19.130Z,37.38
2022-09-28T22:28:50.672Z,36.80
2022-09-28T22:31:19.387Z,36.45
2022-09-28T22:33:46.529Z,40.85
2022-09-28T22:36:16.700Z,40.92
2022-09-28T22:38:44.830Z,39.72
2022-09-28T22:41:12.205Z,38.78
2022-09-28T22:43:39.198Z,37.63
2022-09-28T22:46:06.319Z,34.78
2022-09-28T22:48:34.471Z,37.78
2022-09-28T22:51:02.356Z,34.33
2022-09-28T22:53:29.618Z,34.38
2022-09-28T22:55:57.986Z,34.70
2022-09-28T22:58:25.035Z,33.72
2022-09-28T23:00:52.426Z,31.17
2022-09-28T23:03:19.406Z,38.75
2022-09-28T23:05:54.387Z,37.35
2022-09-28T23:08:22.382Z,38.25
2022-09-28T23:10:49.844Z,35.00
2022-09-28T23:13:16.999Z,36.15
2022-09-28T23:15:43.921Z,36.70
2022-09-28T23:18:11.166Z,35.58
2022-09-28T23:20:38.329Z,31.25
2022-09-28T23:23:05.682Z,30.98
2022-09-28T23:25:32.740Z,30.10
2022-09-28T23:27:59.901Z,30.17
2022-09-28T23:30:27.061Z,27.52
2022-09-28T23:32:54.042Z,26.25
2022-09-28T23:35:21.143Z,25.52
2022-09-28T23:37:51.786Z,25.65
2022-09-28T23:40:19.105Z,24.10
2022-09-28T23:42:46.064Z,24.45
2022-09-28T23:45:13.233Z,24.30
2022-09-28T23:47:40.290Z,22.83
2022-09-28T23:50:08.123Z,20.98
2022-09-28T23:52:35.443Z,20.80
2022-09-28T23:55:02.542Z,20.55
2022-09-28T23:57:29.570Z,21.52
2022-09-28T23:59:56.534Z,20.52
